Time;durP1;ratioP1;P1;durP2;ratioP2;P2;SDS_P1;SDS_P2;PMS_P1;PMS_P2;Temp;Humidity;BMP_temperature;BMP_pressure;BME280_temperature;BME280_humidity;BME280_pressure;Samples;Min_cycle;Max_cycle;Signal;HPM_P1;HPM_P2
2024/01/19 00:00:53;;;;;;;23.00;16.27;;;;;;;;;;5017728;28;20212;-66
2024/01/19 00:03:21;;;;;;;23.23;16.23;;;;;;;;;;5024467;28;20264;-66
2024/01/19 00:05:49;;;;;;;23.13;16.03;;;;;;;;;;5018226;28;20288;-66
2024/01/19 00:08:16;;;;;;;22.20;15.93;;;;;;;;;;5025715;28;20512;-66
2024/01/19 00:10:45;;;;;;;24.03;15.80;;;;;;;;;;5021642;28;20204;-62
2024/01/19 00:13:12;;;;;;;23.57;15.87;;;;;;;;;;5020636;28;20195;-63
2024/01/19 00:15:39;;;;;;;21.73;15.47;;;;;;;;;;5029886;28;20201;-62
2024/01/19 00:18:06;;;;;;;20.53;15.27;;;;;;;;;;5028441;28;20211;-62
2024/01/19 00:20:34;;;;;;;19.60;14.23;;;;;;;;;;5022735;28;20210;-62
2024/01/19 00:23:01;;;;;;;23.67;15.40;;;;;;;;;;5026620;28;20229;-62
2024/01/19 00:25:28;;;;;;;23.40;15.77;;;;;;;;;;5026626;28;20231;-62
2024/01/19 00:27:57;;;;;;;20.63;14.57;;;;;;;;;;5027737;28;20203;-62
2024/01/19 00:30:24;;;;;;;20.77;14.90;;;;;;;;;;5020656;28;20207;-63
2024/01/19 00:32:51;;;;;;;22.20;15.93;;;;;;;;;;5024850;28;20219;-63
2024/01/19 00:35:18;;;;;;;22.20;15.47;;;;;;;;;;5024908;28;20205;-63
2024/01/19 00:37:45;;;;;;;22.03;15.47;;;;;;;;;;5036171;28;20211;-62
2024/01/19 00:40:12;;;;;;;25.03;16.07;;;;;;;;;;5026911;28;20194;-62
2024/01/19 00:42:40;;;;;;;20.73;14.93;;;;;;;;;;5021031;28;20206;-62
2024/01/19 00:45:09;;;;;;;20.60;14.53;;;;;;;;;;5025658;28;20291;-62
2024/01/19 00:47:36;;;;;;;23.00;16.03;;;;;;;;;;5029286;28;20208;-62
2024/01/19 00:50:04;;;;;;;20.67;15.63;;;;;;;;;;5023986;28;20217;-63
2024/01/19 00:52:31;;;;;;;21.17;14.70;;;;;;;;;;5026690;28;20216;-63
2024/01/19 00:54:58;;;;;;;25.00;16.97;;;;;;;;;;5023840;28;20207;-63
2024/01/19 00:57:25;;;;;;;25.63;17.33;;;;;;;;;;5023527;28;20204;-62
2024/01/19 00:59:54;;;;;;;25.47;16.00;;;;;;;;;;5024921;28;20283;-62
2024/01/19 01:02:27;;;;;;;25.53;16.07;;;;;;;;;;5022566;28;20653;-62
2024/01/19 01:04:54;;;;;;;25.10;16.27;;;;;;;;;;5024082;28;20205;-62
2024/01/19 01:07:22;;;;;;;26.03;16.10;;;;;;;;;;5023911;28;20200;-63
2024/01/19 01:09:49;;;;;;;20.73;15.30;;;;;;;;;;5030834;28;20217;-63
2024/01/19 01:12:16;;;;;;;23.53;15.47;;;;;;;;;;5019127;28;20208;-63
2024/01/19 01:14:43;;;;;;;19.20;14.27;;;;;;;;;;5028850;28;20209;-64
2024/01/19 01:17:10;;;;;;;19.80;14.57;;;;;;;;;;5026876;28;20203;-64
2024/01/19 01:19:39;;;;;;;18.90;13.87;;;;;;;;;;5026014;28;20239;-63
2024/01/19 01:22:06;;;;;;;20.83;14.23;;;;;;;;;;5021560;28;20196;-67
2024/01/19 01:24:33;;;;;;;19.87;14.67;;;;;;;;;;5021811;28;20211;-67
2024/01/19 01:27:00;;;;;;;22.43;15.23;;;;;;;;;;5025514;28;20207;-67
2024/01/19 01:29:27;;;;;;;25.53;15.20;;;;;;;;;;5019753;28;20232;-67
2024/01/19 01:31:54;;;;;;;19.90;14.50;;;;;;;;;;5026737;28;20247;-67
2024/01/19 01:34:21;;;;;;;22.03;14.97;;;;;;;;;;5023359;28;20203;-67
2024/01/19 01:36:50;;;;;;;20.57;13.63;;;;;;;;;;5026011;28;20196;-67
2024/01/19 01:39:17;;;;;;;21.13;14.60;;;;;;;;;;5023812;28;20192;-67
2024/01/19 01:41:44;;;;;;;21.40;14.43;;;;;;;;;;5023587;28;20196;-67
2024/01/19 01:44:11;;;;;;;22.80;14.83;;;;;;;;;;5027191;28;20223;-67
2024/01/19 01:46:39;;;;;;;20.57;13.47;;;;;;;;;;5031010;28;20196;-67
2024/01/19 01:49:06;;;;;;;17.70;13.07;;;;;;;;;;5022916;28;20220;-67
2024/01/19 01:51:34;;;;;;;17.77;13.87;;;;;;;;;;5026031;28;20212;-67
2024/01/19 01:54:03;;;;;;;19.07;14.10;;;;;;;;;;5030602;28;20200;-67
2024/01/19 01:56:30;;;;;;;20.13;14.33;;;;;;;;;;5020581;28;20211;-67
2024/01/19 01:58:58;;;;;;;22.07;14.50;;;;;;;;;;5023220;28;20197;-67
2024/01/19 02:01:25;;;;;;;19.97;14.17;;;;;;;;;;5023948;28;20219;-67
2024/01/19 02:03:53;;;;;;;20.60;13.77;;;;;;;;;;5027092;28;20197;-67
2024/01/19 02:06:20;;;;;;;18.37;13.13;;;;;;;;;;5025000;28;20208;-67
2024/01/19 02:08:47;;;;;;;19.63;14.70;;;;;;;;;;5027080;28;20211;-67
2024/01/19 02:11:16;;;;;;;24.17;15.20;;;;;;;;;;5033670;28;20214;-67
2024/01/19 02:13:43;;;;;;;21.47;14.10;;;;;;;;;;5025768;28;20201;-67
2024/01/19 02:16:10;;;;;;;22.87;14.40;;;;;;;;;;5032317;28;20201;-67
2024/01/19 02:18:37;;;;;;;21.13;14.17;;;;;;;;;;5023488;28;20207;-66
2024/01/19 02:21:05;;;;;;;20.67;14.47;;;;;;;;;;5026475;28;20204;-67
2024/01/19 02:23:34;;;;;;;21.93;13.90;;;;;;;;;;5029090;28;20203;-67
2024/01/19 02:26:02;;;;;;;19.80;13.50;;;;;;;;;;5025355;28;20189;-67
2024/01/19 02:28:29;;;;;;;18.00;13.17;;;;;;;;;;5028342;28;20200;-67
2024/01/19 02:30:57;;;;;;;20.23;14.10;;;;;;;;;;5022977;28;20213;-64
2024/01/19 02:33:24;;;;;;;19.10;13.53;;;;;;;;;;5024321;28;20193;-63
2024/01/19 02:35:51;;;;;;;21.63;13.83;;;;;;;;;;5022504;28;20266;-63
2024/01/19 02:38:18;;;;;;;20.97;13.50;;;;;;;;;;5023573;28;20211;-64
2024/01/19 02:40:45;;;;;;;18.60;12.97;;;;;;;;;;5028125;28;20196;-63
2024/01/19 02:43:13;;;;;;;21.37;14.30;;;;;;;;;;5024186;28;20211;-64
2024/01/19 02:45:40;;;;;;;19.93;13.50;;;;;;;;;;5037503;28;20204;-63
2024/01/19 02:48:09;;;;;;;22.43;14.63;;;;;;;;;;5032027;28;20204;-64
2024/01/19 02:50:37;;;;;;;17.33;12.60;;;;;;;;;;5032594;28;20212;-63
2024/01/19 02:53:04;;;;;;;21.27;14.37;;;;;;;;;;5024444;28;20210;-63
2024/01/19 02:55:31;;;;;;;19.93;13.87;;;;;;;;;;5023303;28;20209;-63
2024/01/19 02:57:59;;;;;;;19.43;13.20;;;;;;;;;;5022155;28;20201;-63
2024/01/19 03:00:27;;;;;;;21.53;13.40;;;;;;;;;;5026745;28;20248;-63
2024/01/19 03:02:54;;;;;;;20.07;14.10;;;;;;;;;;5024728;28;20237;-64
2024/01/19 03:05:21;;;;;;;20.83;14.37;;;;;;;;;;5023870;28;20280;-63
2024/01/19 03:07:48;;;;;;;18.13;13.17;;;;;;;;;;5029112;28;20295;-63
2024/01/19 03:10:16;;;;;;;17.40;12.70;;;;;;;;;;5020757;28;20234;-63
2024/01/19 03:12:43;;;;;;;20.03;13.10;;;;;;;;;;5022866;28;20205;-63
2024/01/19 03:15:10;;;;;;;21.57;13.20;;;;;;;;;;5032208;28;20214;-63
2024/01/19 03:17:39;;;;;;;18.23;12.93;;;;;;;;;;5023402;28;20216;-63
2024/01/19 03:20:06;;;;;;;19.97;12.97;;;;;;;;;;5025145;28;20206;-63
2024/01/19 03:22:34;;;;;;;18.63;13.03;;;;;;;;;;5029165;28;20223;-65
2024/01/19 03:25:01;;;;;;;19.67;13.23;;;;;;;;;;5027180;28;20217;-63
2024/01/19 03:27:28;;;;;;;18.73;11.93;;;;;;;;;;5019859;28;20299;-63
2024/01/19 03:29:56;;;;;;;17.73;12.07;;;;;;;;;;5019709;28;20229;-63
2024/01/19 03:32:24;;;;;;;16.53;11.13;;;;;;;;;;5022431;28;20196;-63
2024/01/19 03:34:53;;;;;;;18.20;12.10;;;;;;;;;;5026963;28;20296;-63
2024/01/19 03:37:21;;;;;;;15.97;11.03;;;;;;;;;;5024825;28;20227;-64
2024/01/19 03:39:48;;;;;;;17.77;11.90;;;;;;;;;;5028431;28;20200;-63
2024/01/19 03:42:15;;;;;;;17.97;12.13;;;;;;;;;;5026540;28;20208;-67
2024/01/19 03:44:43;;;;;;;19.17;12.20;;;;;;;;;;5023992;28;20209;-67
2024/01/19 03:47:10;;;;;;;18.00;11.47;;;;;;;;;;5024376;28;20211;-67
2024/01/19 03:49:37;;;;;;;16.43;11.47;;;;;;;;;;5021474;28;20208;-67
2024/01/19 03:52:06;;;;;;;18.07;11.47;;;;;;;;;;5022405;28;20291;-68
2024/01/19 03:54:33;;;;;;;15.43;10.73;;;;;;;;;;5026784;28;20211;-67
2024/01/19 03:57:02;;;;;;;16.07;11.03;;;;;;;;;;5023947;28;20192;-67
2024/01/19 03:59:29;;;;;;;18.50;12.03;;;;;;;;;;5024279;28;20196;-67
2024/01/19 04:01:56;;;;;;;20.63;12.73;;;;;;;;;;5023958;28;20457;-66
2024/01/19 04:04:23;;;;;;;19.23;13.30;;;;;;;;;;5023289;28;20197;-66
2024/01/19 04:06:52;;;;;;;22.07;14.57;;;;;;;;;;5031005;28;20211;-67
2024/01/19 04:09:20;;;;;;;22.80;14.00;;;;;;;;;;5025661;28;20205;-66
2024/01/19 04:11:47;;;;;;;18.13;13.27;;;;;;;;;;5026454;28;20222;-66
2024/01/19 04:14:15;;;;;;;22.87;14.43;;;;;;;;;;5029894;28;20282;-67
2024/01/19 04:16:41;;;;;;;21.23;13.83;;;;;;;;;;5027448;28;20214;-66
2024/01/19 04:19:08;;;;;;;20.47;13.73;;;;;;;;;;5029349;28;20287;-67
2024/01/19 04:21:35;;;;;;;21.87;13.83;;;;;;;;;;5035220;28;20287;-67
2024/01/19 04:24:03;;;;;;;21.77;14.60;;;;;;;;;;5035477;28;20206;-67
2024/01/19 04:26:31;;;;;;;25.23;13.93;;;;;;;;;;5025817;28;20210;-67
2024/01/19 04:28:58;;;;;;;25.37;14.73;;;;;;;;;;5025592;28;20204;-66
2024/01/19 04:31:26;;;;;;;24.90;16.03;;;;;;;;;;5028025;28;20239;-67
2024/01/19 04:33:53;;;;;;;21.90;14.47;;;;;;;;;;5025069;28;20210;-66
2024/01/19 04:36:20;;;;;;;21.80;13.83;;;;;;;;;;5031616;28;20222;-66
2024/01/19 04:38:51;;;;;;;22.97;14.13;;;;;;;;;;5028059;28;20200;-66
2024/01/19 04:41:18;;;;;;;21.03;13.77;;;;;;;;;;5030238;28;20205;-66
2024/01/19 04:43:46;;;;;;;21.27;13.43;;;;;;;;;;5030351;28;20411;-66
2024/01/19 04:46:13;;;;;;;19.77;13.30;;;;;;;;;;5036440;28;20192;-67
2024/01/19 04:48:41;;;;;;;19.00;12.53;;;;;;;;;;5028700;28;20204;-67
2024/01/19 04:51:08;;;;;;;19.97;12.77;;;;;;;;;;5030270;28;20234;-67
2024/01/19 04:53:35;;;;;;;21.90;13.37;;;;;;;;;;5026124;28;20201;-67
2024/01/19 04:56:05;;;;;;;17.80;12.27;;;;;;;;;;5030186;28;20204;-67
2024/01/19 04:58:33;;;;;;;19.10;12.60;;;;;;;;;;5025225;28;20204;-67
2024/01/19 05:01:01;;;;;;;19.87;12.67;;;;;;;;;;5027299;28;20202;-67
2024/01/19 05:03:28;;;;;;;19.10;12.47;;;;;;;;;;5027382;28;20270;-67
2024/01/19 05:05:55;;;;;;;18.77;12.47;;;;;;;;;;5029952;28;20193;-66
2024/01/19 05:08:23;;;;;;;21.10;13.30;;;;;;;;;;5032698;28;20200;-67
2024/01/19 05:10:50;;;;;;;27.23;15.73;;;;;;;;;;5027772;28;20212;-66
2024/01/19 05:13:17;;;;;;;27.30;16.80;;;;;;;;;;5029211;28;20200;-66
2024/01/19 05:15:44;;;;;;;27.57;17.43;;;;;;;;;;5031285;28;20207;-67
2024/01/19 05:18:13;;;;;;;32.90;20.37;;;;;;;;;;5029176;28;20204;-67
2024/01/19 05:20:40;;;;;;;28.00;17.97;;;;;;;;;;5040390;28;20196;-66
2024/01/19 05:23:07;;;;;;;31.10;17.10;;;;;;;;;;5024218;28;20226;-66
2024/01/19 05:25:34;;;;;;;32.67;18.37;;;;;;;;;;5021827;28;20214;-67
2024/01/19 05:28:02;;;;;;;29.13;16.77;;;;;;;;;;5023310;28;20204;-66
2024/01/19 05:30:29;;;;;;;26.90;16.73;;;;;;;;;;5023428;28;20223;-66
2024/01/19 05:32:56;;;;;;;23.40;15.67;;;;;;;;;;5017744;28;20234;-67
2024/01/19 05:35:25;;;;;;;23.83;14.60;;;;;;;;;;5020223;28;20207;-66
2024/01/19 05:37:53;;;;;;;26.30;16.00;;;;;;;;;;5022605;28;20204;-66
2024/01/19 05:40:20;;;;;;;27.70;16.00;;;;;;;;;;5022069;28;20285;-67
2024/01/19 05:42:47;;;;;;;28.87;15.90;;;;;;;;;;5026491;28;20200;-66
2024/01/19 05:45:15;;;;;;;27.53;15.23;;;;;;;;;;5024585;28;20205;-66
2024/01/19 05:47:42;;;;;;;24.93;16.20;;;;;;;;;;5017548;28;20251;-67
2024/01/19 05:50:09;;;;;;;23.70;14.90;;;;;;;;;;5022829;28;20294;-67
2024/01/19 05:52:38;;;;;;;26.17;15.33;;;;;;;;;;5022498;28;20211;-66
2024/01/19 05:55:05;;;;;;;23.50;14.47;;;;;;;;;;5024972;28;20263;-66
2024/01/19 05:57:33;;;;;;;21.00;13.67;;;;;;;;;;5027676;28;20211;-67
2024/01/19 06:00:00;;;;;;;20.30;12.93;;;;;;;;;;5025477;28;20200;-67
2024/01/19 06:02:27;;;;;;;21.23;13.87;;;;;;;;;;5019061;28;20236;-63
2024/01/19 06:04:54;;;;;;;19.87;12.63;;;;;;;;;;5026138;28;20295;-62
2024/01/19 06:07:22;;;;;;;19.83;12.53;;;;;;;;;;5020756;28;20201;-63
2024/01/19 06:09:51;;;;;;;19.97;13.17;;;;;;;;;;5026737;28;20295;-63
2024/01/19 06:12:18;;;;;;;21.07;13.47;;;;;;;;;;5027809;28;20216;-63
2024/01/19 06:14:45;;;;;;;23.77;15.60;;;;;;;;;;5025609;28;20208;-63
2024/01/19 06:17:12;;;;;;;32.90;23.77;;;;;;;;;;5023697;28;20216;-62
2024/01/19 06:19:41;;;;;;;22.50;15.57;;;;;;;;;;5020804;28;20200;-63
2024/01/19 06:22:09;;;;;;;23.33;14.77;;;;;;;;;;5020500;28;20200;-63
2024/01/19 06:24:36;;;;;;;25.10;17.07;;;;;;;;;;5023333;28;20208;-62
2024/01/19 06:27:05;;;;;;;29.13;17.33;;;;;;;;;;5021762;28;20205;-62
2024/01/19 06:29:32;;;;;;;26.80;18.57;;;;;;;;;;5021704;28;20200;-63
2024/01/19 06:31:59;;;;;;;29.73;19.17;;;;;;;;;;5018203;28;20237;-63
2024/01/19 06:34:26;;;;;;;28.33;18.87;;;;;;;;;;5019481;28;20296;-63
2024/01/19 06:36:54;;;;;;;30.47;17.40;;;;;;;;;;5020230;28;20215;-63
2024/01/19 06:39:21;;;;;;;27.47;16.47;;;;;;;;;;5021322;28;20209;-62
2024/01/19 06:41:48;;;;;;;25.13;16.53;;;;;;;;;;5022384;28;20207;-63
2024/01/19 06:44:16;;;;;;;24.27;15.47;;;;;;;;;;5020026;28;20207;-64
2024/01/19 06:46:45;;;;;;;24.23;15.07;;;;;;;;;;5013092;28;20207;-63
2024/01/19 06:49:13;;;;;;;21.33;14.03;;;;;;;;;;5019576;28;20219;-63
2024/01/19 06:51:40;;;;;;;22.53;14.83;;;;;;;;;;5020011;28;20212;-62
2024/01/19 06:54:07;;;;;;;20.57;13.70;;;;;;;;;;5021162;28;20259;-63
2024/01/19 06:56:34;;;;;;;22.33;13.77;;;;;;;;;;5028524;28;20220;-62
2024/01/19 06:59:02;;;;;;;23.10;15.60;;;;;;;;;;5027236;28;20197;-63
2024/01/19 07:01:31;;;;;;;26.83;17.40;;;;;;;;;;5023106;28;20209;-64
2024/01/19 07:03:58;;;;;;;27.40;18.20;;;;;;;;;;5023487;28;20211;-62
2024/01/19 07:06:25;;;;;;;29.83;17.70;;;;;;;;;;5021904;28;20217;-63
2024/01/19 07:08:53;;;;;;;28.17;18.37;;;;;;;;;;5019415;28;20204;-63
2024/01/19 07:11:20;;;;;;;28.10;18.67;;;;;;;;;;5025738;28;20277;-66
2024/01/19 07:13:47;;;;;;;28.90;18.73;;;;;;;;;;5025757;28;20211;-66
2024/01/19 07:16:15;;;;;;;30.60;20.17;;;;;;;;;;5025738;28;20237;-67
2024/01/19 07:18:43;;;;;;;28.50;19.00;;;;;;;;;;5021324;28;20325;-67
2024/01/19 07:21:11;;;;;;;32.03;20.17;;;;;;;;;;5026372;28;20283;-67
2024/01/19 07:23:38;;;;;;;32.00;20.10;;;;;;;;;;5025845;28;20200;-67
2024/01/19 07:26:06;;;;;;;33.60;19.03;;;;;;;;;;5025306;28;20200;-66
2024/01/19 07:28:33;;;;;;;38.93;23.60;;;;;;;;;;5022622;28;20204;-67
2024/01/19 07:31:00;;;;;;;30.20;18.77;;;;;;;;;;5021659;28;20230;-67
2024/01/19 07:33:28;;;;;;;25.77;17.23;;;;;;;;;;5020803;28;20204;-67
2024/01/19 07:35:57;;;;;;;25.87;17.47;;;;;;;;;;5020636;28;20204;-67
2024/01/19 07:38:24;;;;;;;26.93;17.03;;;;;;;;;;5019296;28;20247;-67
2024/01/19 07:40:54;;;;;;;26.07;17.00;;;;;;;;;;5019559;28;20222;-67
2024/01/19 07:43:24;;;;;;;27.40;18.33;;;;;;;;;;5021984;28;20246;-67
2024/01/19 07:45:56;;;;;;;30.43;21.00;;;;;;;;;;5023597;28;20207;-67
2024/01/19 07:48:25;;;;;;;28.80;18.37;;;;;;;;;;5021500;28;20211;-66
2024/01/19 07:50:56;;;;;;;21.97;12.23;;;;;;;;;;5020780;28;20250;-66
2024/01/19 07:53:25;;;;;;;17.20;10.40;;;;;;;;;;5020545;28;20211;-66
2024/01/19 07:55:54;;;;;;;20.23;11.13;;;;;;;;;;5022951;28;20201;-66
2024/01/19 07:58:21;;;;;;;18.57;11.73;;;;;;;;;;5019751;28;20196;-66
2024/01/19 08:00:51;;;;;;;16.33;10.43;;;;;;;;;;5021169;28;20203;-67
2024/01/19 08:03:26;;;;;;;16.33;10.93;;;;;;;;;;5019869;28;20250;-66
2024/01/19 08:05:56;;;;;;;14.63;10.07;;;;;;;;;;5022293;28;20203;-67
2024/01/19 08:08:25;;;;;;;17.93;11.70;;;;;;;;;;5018214;28;20217;-66
2024/01/19 08:10:52;;;;;;;16.90;11.80;;;;;;;;;;5017766;28;20213;-67
2024/01/19 08:13:19;;;;;;;18.10;12.77;;;;;;;;;;5018057;28;20196;-66
2024/01/19 08:15:47;;;;;;;18.17;12.80;;;;;;;;;;5016782;28;20205;-67
2024/01/19 08:18:14;;;;;;;19.03;12.30;;;;;;;;;;5023085;28;20204;-66
2024/01/19 08:20:41;;;;;;;17.50;11.90;;;;;;;;;;5018311;28;20205;-62
2024/01/19 08:23:08;;;;;;;18.93;12.03;;;;;;;;;;5021293;28;20291;-62
2024/01/19 08:25:37;;;;;;;17.07;12.33;;;;;;;;;;5024158;28;20208;-62
2024/01/19 08:28:04;;;;;;;28.80;18.37;;;;;;;;;;5020472;28;20192;-62
2024/01/19 08:30:31;;;;;;;31.80;20.40;;;;;;;;;;5020580;28;20204;-62
2024/01/19 08:33:01;;;;;;;34.53;20.20;;;;;;;;;;5018009;28;20262;-63
2024/01/19 08:35:28;;;;;;;29.07;18.90;;;;;;;;;;5018355;28;20208;-62
2024/01/19 08:37:55;;;;;;;34.30;20.53;;;;;;;;;;5018143;28;20253;-63
2024/01/19 08:40:22;;;;;;;27.37;18.00;;;;;;;;;;5020762;28;20201;-62
2024/01/19 08:42:51;;;;;;;29.03;19.10;;;;;;;;;;5022213;28;20204;-62
2024/01/19 08:45:18;;;;;;;28.70;18.80;;;;;;;;;;5018992;28;20220;-63
2024/01/19 08:47:45;;;;;;;26.73;18.17;;;;;;;;;;5022795;28;20208;-63
2024/01/19 08:50:12;;;;;;;32.27;18.97;;;;;;;;;;5023584;28;20193;-62
2024/01/19 08:52:39;;;;;;;29.97;18.23;;;;;;;;;;5023780;28;20224;-62
2024/01/19 08:55:06;;;;;;;28.53;18.53;;;;;;;;;;5020240;28;20201;-62
2024/01/19 08:57:34;;;;;;;34.37;22.83;;;;;;;;;;5022472;28;20208;-62
2024/01/19 09:00:04;;;;;;;30.57;20.53;;;;;;;;;;5026745;28;20204;-62
2024/01/19 09:02:31;;;;;;;31.07;19.93;;;;;;;;;;5027624;28;20236;-62
2024/01/19 09:04:58;;;;;;;30.50;19.27;;;;;;;;;;5026971;28;20366;-62
2024/01/19 09:07:25;;;;;;;24.73;17.43;;;;;;;;;;5029504;28;20197;-62
2024/01/19 09:09:52;;;;;;;28.90;19.40;;;;;;;;;;5020376;28;20666;-64
2024/01/19 09:12:19;;;;;;;28.17;17.27;;;;;;;;;;5017288;28;20227;-63
2024/01/19 09:14:47;;;;;;;23.73;14.93;;;;;;;;;;5016777;28;20215;-63
2024/01/19 09:17:16;;;;;;;28.17;17.27;;;;;;;;;;5029140;28;20227;-63
2024/01/19 09:19:43;;;;;;;27.70;18.97;;;;;;;;;;5021274;28;20197;-63
2024/01/19 09:22:10;;;;;;;26.47;18.97;;;;;;;;;;5020855;28;20193;-62
2024/01/19 09:24:37;;;;;;;28.37;19.03;;;;;;;;;;5024783;28;20204;-63
2024/01/19 09:27:04;;;;;;;25.90;15.67;;;;;;;;;;5027748;28;20211;-62
2024/01/19 09:29:31;;;;;;;24.47;15.67;;;;;;;;;;5023823;28;20204;-62
2024/01/19 09:31:58;;;;;;;23.63;15.10;;;;;;;;;;5022231;28;20217;-63
2024/01/19 09:34:28;;;;;;;19.77;13.73;;;;;;;;;;5021460;28;20202;-62
2024/01/19 09:36:55;;;;;;;20.43;13.40;;;;;;;;;;5027146;28;20486;-62
2024/01/19 09:39:23;;;;;;;21.43;13.83;;;;;;;;;;5023294;28;20204;-61
2024/01/19 09:41:52;;;;;;;19.93;13.23;;;;;;;;;;5022749;28;20189;-64
2024/01/19 09:44:20;;;;;;;24.20;16.07;;;;;;;;;;5024630;28;20204;-62
2024/01/19 09:46:56;;;;;;;24.03;17.67;;;;;;;;;;5032286;28;20206;-63
2024/01/19 09:49:29;;;;;;;25.30;16.07;;;;;;;;;;5030498;28;20208;-62
2024/01/19 09:51:58;;;;;;;21.60;13.67;;;;;;;;;;5026557;28;20695;-63
2024/01/19 09:54:29;;;;;;;18.37;13.00;;;;;;;;;;5020676;28;20208;-63
2024/01/19 09:56:57;;;;;;;19.13;12.30;;;;;;;;;;5030455;28;20270;-62
2024/01/19 09:59:24;;;;;;;19.23;12.80;;;;;;;;;;5026979;28;20200;-62
2024/01/19 10:01:54;;;;;;;21.47;12.23;;;;;;;;;;5022810;28;20240;-62
2024/01/19 10:04:22;;;;;;;22.37;13.97;;;;;;;;;;5023414;28;20189;-64
2024/01/19 10:06:49;;;;;;;18.10;12.17;;;;;;;;;;5024636;28;20216;-62
2024/01/19 10:09:18;;;;;;;16.70;11.53;;;;;;;;;;5026697;28;20214;-61
2024/01/19 10:11:47;;;;;;;17.50;12.20;;;;;;;;;;5022871;28;20299;-62
2024/01/19 10:14:14;;;;;;;17.90;11.47;;;;;;;;;;5023320;28;20228;-63
2024/01/19 10:16:42;;;;;;;17.43;12.07;;;;;;;;;;5019185;28;20206;-62
2024/01/19 10:19:10;;;;;;;17.00;11.47;;;;;;;;;;5020754;28;20210;-61
2024/01/19 10:21:37;;;;;;;16.10;11.20;;;;;;;;;;5014254;28;20499;-62
2024/01/19 10:24:10;;;;;;;15.73;11.53;;;;;;;;;;5019510;28;20203;-62
2024/01/19 10:26:39;;;;;;;19.90;12.70;;;;;;;;;;5020398;28;20250;-63
2024/01/19 10:29:10;;;;;;;16.67;11.10;;;;;;;;;;5014844;28;20206;-63
2024/01/19 10:31:37;;;;;;;17.40;11.07;;;;;;;;;;5017683;28;20223;-62
2024/01/19 10:34:05;;;;;;;15.93;10.23;;;;;;;;;;5016998;28;20193;-64
2024/01/19 10:36:39;;;;;;;15.90;10.93;;;;;;;;;;5023968;28;20291;-62
2024/01/19 10:39:17;;;;;;;15.70;10.53;;;;;;;;;;5022988;28;20291;-62
2024/01/19 10:41:45;;;;;;;17.47;11.87;;;;;;;;;;5019985;28;20197;-65
2024/01/19 10:44:13;;;;;;;16.87;11.77;;;;;;;;;;5016226;28;20204;-66
2024/01/19 10:46:41;;;;;;;16.50;11.13;;;;;;;;;;5022987;28;20200;-66
2024/01/19 10:49:08;;;;;;;17.40;11.33;;;;;;;;;;5022893;28;20208;-66
2024/01/19 10:51:36;;;;;;;17.13;11.00;;;;;;;;;;5023096;28;20216;-66
2024/01/19 10:54:03;;;;;;;15.50;11.03;;;;;;;;;;5022760;28;20202;-66
2024/01/19 10:56:31;;;;;;;19.70;11.30;;;;;;;;;;5023788;28;20215;-66
2024/01/19 10:59:10;;;;;;;19.47;12.20;;;;;;;;;;5020495;28;20287;-66
2024/01/19 11:01:37;;;;;;;16.57;10.30;;;;;;;;;;5024346;28;20202;-65
2024/01/19 11:04:05;;;;;;;16.80;11.37;;;;;;;;;;5020489;28;20200;-66
2024/01/19 11:06:32;;;;;;;16.27;10.50;;;;;;;;;;5022320;28;20201;-66
2024/01/19 11:08:59;;;;;;;17.07;10.53;;;;;;;;;;5018411;28;20205;-65
2024/01/19 11:11:27;;;;;;;19.90;11.50;;;;;;;;;;5018805;28;20196;-66
2024/01/19 11:13:55;;;;;;;14.97;10.77;;;;;;;;;;5021932;28;20210;-66
2024/01/19 11:16:27;;;;;;;18.13;11.50;;;;;;;;;;5024156;28;20204;-66
2024/01/19 11:18:55;;;;;;;16.13;11.60;;;;;;;;;;5022256;28;20208;-66
2024/01/19 11:21:24;;;;;;;18.37;10.90;;;;;;;;;;5023241;28;20282;-65
2024/01/19 11:23:51;;;;;;;18.63;12.23;;;;;;;;;;5019101;28;20220;-65
2024/01/19 11:26:26;;;;;;;18.27;11.43;;;;;;;;;;5025701;28;20205;-66
2024/01/19 11:28:54;;;;;;;18.20;11.67;;;;;;;;;;5022043;28;20236;-65
2024/01/19 11:31:23;;;;;;;18.40;12.43;;;;;;;;;;5015768;28;20258;-65
2024/01/19 11:33:53;;;;;;;20.63;12.27;;;;;;;;;;5021759;28;20231;-66
2024/01/19 11:36:39;;;;;;;18.93;12.17;;;;;;;;;;5023584;28;20211;-66
2024/01/19 11:39:06;;;;;;;17.13;11.47;;;;;;;;;;5014796;28;20218;-66
2024/01/19 11:41:44;;;;;;;18.67;13.20;;;;;;;;;;5019051;28;20200;-66
2024/01/19 11:44:31;;;;;;;20.93;11.90;;;;;;;;;;5020425;28;20214;-66
2024/01/19 11:47:00;;;;;;;15.77;10.77;;;;;;;;;;5021225;28;20200;-65
2024/01/19 11:49:46;;;;;;;15.13;11.10;;;;;;;;;;5019908;28;20208;-66
2024/01/19 11:52:28;;;;;;;19.57;11.97;;;;;;;;;;5020759;28;20230;-66
2024/01/19 11:54:55;;;;;;;18.77;12.67;;;;;;;;;;5019146;28;20541;-66
2024/01/19 11:57:24;;;;;;;19.47;12.73;;;;;;;;;;5018981;28;20207;-66
2024/01/19 11:59:52;;;;;;;21.97;13.67;;;;;;;;;;5021672;28;20226;-65
2024/01/19 12:02:22;;;;;;;23.10;16.60;;;;;;;;;;5021958;28;20275;-66
2024/01/19 12:04:50;;;;;;;25.00;16.67;;;;;;;;;;5018441;28;20282;-65
2024/01/19 12:07:18;;;;;;;24.07;14.20;;;;;;;;;;5018797;28;20207;-65
2024/01/19 12:09:45;;;;;;;19.23;13.13;;;;;;;;;;5019826;28;20204;-66
2024/01/19 12:12:12;;;;;;;16.43;12.13;;;;;;;;;;5019840;28;20395;-66
2024/01/19 12:14:39;;;;;;;16.63;11.57;;;;;;;;;;5015113;28;20212;-65
2024/01/19 12:17:07;;;;;;;17.07;11.17;;;;;;;;;;5015969;28;20208;-66
2024/01/19 12:19:35;;;;;;;16.20;11.13;;;;;;;;;;5019511;28;20201;-65
2024/01/19 12:22:03;;;;;;;15.57;10.73;;;;;;;;;;5023858;28;20196;-65
2024/01/19 12:24:30;;;;;;;18.70;12.30;;;;;;;;;;5017827;28;20208;-65
2024/01/19 12:26:57;;;;;;;16.23;11.53;;;;;;;;;;5023522;28;20212;-66
2024/01/19 12:29:28;;;;;;;13.50;10.60;;;;;;;;;;5016917;28;20204;-65
2024/01/19 12:32:09;;;;;;;13.87;10.10;;;;;;;;;;5019827;28;20200;-65
2024/01/19 12:34:38;;;;;;;18.87;11.90;;;;;;;;;;5019217;28;20206;-65
2024/01/19 12:37:05;;;;;;;16.60;11.70;;;;;;;;;;5021006;28;20215;-65
2024/01/19 12:39:32;;;;;;;17.67;11.80;;;;;;;;;;5024896;28;20207;-65
2024/01/19 12:42:00;;;;;;;18.77;11.73;;;;;;;;;;5018857;28;20279;-65
2024/01/19 12:44:27;;;;;;;19.07;13.07;;;;;;;;;;5015000;28;20210;-65
2024/01/19 12:46:54;;;;;;;18.80;12.50;;;;;;;;;;5020510;28;20204;-65
2024/01/19 12:49:21;;;;;;;17.57;12.37;;;;;;;;;;5018468;28;20842;-65
2024/01/19 12:51:50;;;;;;;22.67;13.70;;;;;;;;;;5021504;28;20197;-65
2024/01/19 12:54:19;;;;;;;16.87;11.87;;;;;;;;;;5022491;28;20228;-65
2024/01/19 12:56:48;;;;;;;18.10;11.90;;;;;;;;;;5025539;28;20208;-64
2024/01/19 12:59:19;;;;;;;22.20;13.10;;;;;;;;;;5019539;28;20204;-65
2024/01/19 13:01:46;;;;;;;20.40;13.83;;;;;;;;;;5014008;28;20241;-65
2024/01/19 13:04:15;;;;;;;19.37;13.77;;;;;;;;;;5010028;28;20307;-65
2024/01/19 13:06:43;;;;;;;19.73;13.03;;;;;;;;;;5019290;28;20208;-66
2024/01/19 13:09:12;;;;;;;20.57;13.23;;;;;;;;;;5018528;28;20387;-66
2024/01/19 13:11:39;;;;;;;21.07;12.93;;;;;;;;;;5020638;28;20209;-65
2024/01/19 13:14:07;;;;;;;19.97;13.33;;;;;;;;;;5018167;28;20216;-65
2024/01/19 13:16:34;;;;;;;18.13;13.60;;;;;;;;;;5008770;28;20205;-65
2024/01/19 13:19:01;;;;;;;18.13;12.90;;;;;;;;;;5009716;28;20480;-65
2024/01/19 13:21:29;;;;;;;19.33;14.07;;;;;;;;;;5010250;28;20214;-65
2024/01/19 13:23:56;;;;;;;18.93;13.33;;;;;;;;;;5009862;28;20205;-65
2024/01/19 13:26:24;;;;;;;17.30;12.30;;;;;;;;;;5008734;28;20200;-65
2024/01/19 13:28:52;;;;;;;17.27;12.40;;;;;;;;;;5008585;28;20229;-65
2024/01/19 13:31:19;;;;;;;17.87;12.17;;;;;;;;;;5010015;28;20288;-65
2024/01/19 13:33:47;;;;;;;20.70;12.03;;;;;;;;;;5008749;28;20228;-65
2024/01/19 13:36:15;;;;;;;16.00;11.10;;;;;;;;;;5006280;28;20209;-65
2024/01/19 13:38:42;;;;;;;16.10;10.47;;;;;;;;;;5022005;28;20230;-65
2024/01/19 13:41:10;;;;;;;19.47;11.87;;;;;;;;;;5017395;28;20227;-66
2024/01/19 13:43:41;;;;;;;18.23;11.90;;;;;;;;;;5017242;28;20203;-66
2024/01/19 13:46:08;;;;;;;18.93;12.33;;;;;;;;;;5020295;28;20200;-65
2024/01/19 13:48:36;;;;;;;19.77;12.37;;;;;;;;;;5019537;28;20319;-66
2024/01/19 13:51:03;;;;;;;22.40;13.17;;;;;;;;;;5021163;28;20205;-66
2024/01/19 13:53:30;;;;;;;20.70;12.67;;;;;;;;;;5019199;28;20226;-66
2024/01/19 13:55:57;;;;;;;17.63;12.67;;;;;;;;;;5022627;28;20193;-66
2024/01/19 13:58:24;;;;;;;17.60;12.10;;;;;;;;;;5021499;28;20196;-65
2024/01/19 14:00:52;;;;;;;19.33;12.30;;;;;;;;;;5022600;28;20211;-65
2024/01/19 14:03:20;;;;;;;18.73;11.87;;;;;;;;;;5020770;28;20231;-65
2024/01/19 14:05:48;;;;;;;14.93;10.77;;;;;;;;;;5026580;28;20274;-66
2024/01/19 14:08:16;;;;;;;14.87;10.33;;;;;;;;;;5026037;28;20210;-66
2024/01/19 14:10:46;;;;;;;14.80;10.57;;;;;;;;;;5022174;28;20201;-65
2024/01/19 14:13:14;;;;;;;20.43;11.10;;;;;;;;;;5021554;28;20216;-66
2024/01/19 14:15:43;;;;;;;16.33;12.30;;;;;;;;;;5022922;28;20200;-66
2024/01/19 14:18:12;;;;;;;16.47;11.67;;;;;;;;;;5027148;28;20227;-66
2024/01/19 14:20:39;;;;;;;16.00;12.23;;;;;;;;;;5021074;28;20197;-65